Etusivu
METAR-TAF:

METAR-TAF

Lentoasemat :

Maarianhamina, Suomi

Maarianhaminan lentoasema

Leveyspiiri: 60-07N, Pituuspiiri: 019-54E, korkeus merenpinnasta: 6 m

Tämänhetkinen sää

Tämä raportti tehtiin 21 minuuttia sitten, kello 12.20 UTC
Tuuli 7 kn luoteesta
Lämpötila 9°C
Kosteus 71%
Ilmanpaine 1020 hPa
Näkyvyys 10 km tai enemmän
Muutamia pilviä 2400 ft:n korkeudessa

METAR: EFMA 191220Z AUTO 31007KT 9999 FEW024 09/04 Q1020

Aika: 15:41 (12:41 UTC)

Sääennuste

Tämä raportti tehtiin 1 tunti ja 12 minuuttia sitten, kello 11.29 UTC
Ennuste voimassa 19. päivästä klo 12 UTC - 19. päivään klo 21 UTC
Tuuli 8 kn luoteesta
Näkyvyys 10 km tai enemmän
Hajanaisia pilviä 2000 ft:n korkeudessa

TAF: EFMA 191129Z 1912/1921 32008KT 9999 SCT020

Säähavainnot ja -ennusteet yli 4000 lentoasemalta (METAR- ja TAF-raportit).

Käytössä olevat sääasemat on merkitty karttaan keltaisilla ja punaisilla pisteillä.

Aseta hiiri pisteen päälle nähdäksesi sääaseman nimen.

Klikkaa sitten nähdäksesi säähavainnot ja -ennusteet.

Kartan vaihtaminen: klikkaa mustalla rastilla varustettuja vihreitä pisteitä, niin voit zoomata sisään; viivalla varustettua vihreää pistettä, niin voit zoomata ulos tai vihreitä nuolia, niin pääset viereisille kartoille.


METAR-TAF: